createdAt,value
2022-10-05T00:01:28.727Z,14.97
2022-10-05T00:04:06.595Z,15.00
2022-10-05T00:06:34.855Z,15.00
2022-10-05T00:09:03.096Z,14.97
2022-10-05T00:11:37.465Z,14.94
2022-10-05T00:14:13.210Z,14.91
2022-10-05T00:16:41.427Z,14.94
2022-10-05T00:19:19.250Z,14.95
2022-10-05T00:21:47.537Z,14.95
2022-10-05T00:24:19.121Z,14.91
2022-10-05T00:26:54.203Z,14.88
2022-10-05T00:29:25.937Z,14.89
2022-10-05T00:31:54.215Z,14.93
2022-10-05T00:34:22.420Z,14.93
2022-10-05T00:36:50.643Z,14.91
2022-10-05T00:39:19.628Z,14.86
2022-10-05T00:42:11.227Z,14.91
2022-10-05T00:44:46.495Z,14.91
2022-10-05T00:47:35.909Z,14.93
2022-10-05T00:50:24.095Z,14.88
2022-10-05T00:53:00.550Z,14.89
2022-10-05T00:55:39.669Z,14.85
2022-10-05T00:58:20.599Z,14.84
2022-10-05T01:00:55.977Z,14.82
2022-10-05T01:03:29.696Z,14.83
2022-10-05T01:06:08.922Z,14.88
2022-10-05T01:08:49.124Z,14.88
2022-10-05T01:11:23.808Z,14.96
2022-10-05T01:14:05.397Z,14.98
2022-10-05T01:16:43.669Z,14.96
2022-10-05T01:19:29.469Z,14.95
2022-10-05T01:22:05.530Z,14.99
2022-10-05T01:24:54.558Z,14.95
2022-10-05T01:27:56.256Z,14.94
2022-10-05T01:30:24.825Z,14.93
2022-10-05T01:33:01.564Z,14.93
2022-10-05T01:35:43.943Z,14.95
2022-10-05T01:38:26.337Z,14.93
2022-10-05T01:41:03.855Z,14.93
2022-10-05T01:43:38.954Z,14.93
2022-10-05T01:46:20.878Z,14.93
2022-10-05T01:48:59.367Z,14.95
2022-10-05T01:51:37.881Z,14.95
2022-10-05T01:54:21.194Z,14.93
2022-10-05T01:56:59.519Z,14.97
2022-10-05T01:59:41.915Z,14.94
2022-10-05T02:02:13.463Z,14.92
2022-10-05T02:05:02.951Z,14.91
2022-10-05T02:07:37.144Z,14.91
2022-10-05T02:10:13.461Z,14.89
2022-10-05T02:12:43.343Z,14.87
2022-10-05T02:15:15.946Z,14.91
2022-10-05T02:17:49.648Z,14.88
2022-10-05T02:20:25.834Z,14.89
2022-10-05T02:22:57.078Z,14.88
2022-10-05T02:25:30.121Z,14.86
2022-10-05T02:28:02.314Z,14.86
2022-10-05T02:30:36.307Z,14.87
2022-10-05T02:33:10.321Z,14.92
2022-10-05T02:35:39.435Z,14.88
2022-10-05T02:38:15.567Z,14.92
2022-10-05T02:40:53.881Z,14.88
2022-10-05T02:43:29.579Z,14.88
2022-10-05T02:46:07.962Z,14.94
2022-10-05T02:48:43.693Z,14.92
2022-10-05T02:51:20.391Z,14.92
2022-10-05T02:54:01.637Z,14.89
2022-10-05T02:56:34.443Z,14.91
2022-10-05T02:59:11.682Z,14.93
2022-10-05T03:01:48.151Z,14.94
2022-10-05T03:04:27.949Z,14.94
2022-10-05T03:07:05.863Z,14.89
2022-10-05T03:09:40.466Z,14.92
2022-10-05T03:12:19.130Z,14.91
2022-10-05T03:14:55.798Z,14.92
2022-10-05T03:17:30.966Z,14.93
2022-10-05T03:20:16.227Z,14.99
2022-10-05T03:22:53.798Z,14.98
2022-10-05T03:25:39.390Z,14.98
2022-10-05T03:28:15.044Z,15.06
2022-10-05T03:31:01.375Z,15.04
2022-10-05T03:33:38.583Z,14.96
2022-10-05T03:36:15.876Z,14.98
2022-10-05T03:38:51.628Z,15.06
2022-10-05T03:41:27.873Z,15.04
2022-10-05T03:44:18.636Z,15.09
2022-10-05T03:46:58.976Z,15.09
2022-10-05T03:49:39.484Z,15.03
2022-10-05T03:52:14.033Z,15.11
2022-10-05T03:54:48.061Z,15.09
2022-10-05T03:57:20.405Z,15.07
2022-10-05T04:00:00.098Z,15.02
2022-10-05T04:02:37.198Z,15.06
2022-10-05T04:05:16.333Z,15.00
2022-10-05T04:07:48.670Z,14.98
2022-10-05T04:10:23.294Z,15.04
2022-10-05T04:12:56.073Z,15.02
2022-10-05T04:15:31.029Z,15.06
2022-10-05T04:18:05.039Z,15.04
2022-10-05T04:20:43.233Z,14.98
2022-10-05T04:23:20.308Z,14.91
2022-10-05T04:25:54.783Z,14.88
2022-10-05T04:28:39.625Z,14.79
2022-10-05T04:31:14.804Z,14.78
2022-10-05T04:33:49.151Z,14.79
2022-10-05T04:36:25.517Z,14.78
2022-10-05T04:39:04.160Z,14.70
2022-10-05T04:41:50.046Z,14.72
2022-10-05T04:44:55.886Z,14.72
2022-10-05T04:47:42.399Z,14.70
2022-10-05T04:50:31.983Z,14.68
2022-10-05T04:53:14.376Z,14.71
2022-10-05T04:55:52.457Z,14.71
2022-10-05T04:58:31.773Z,14.67
2022-10-05T05:01:15.336Z,14.65
2022-10-05T05:03:59.946Z,14.68
2022-10-05T05:06:39.800Z,14.69
2022-10-05T05:09:25.935Z,14.70
2022-10-05T05:12:05.329Z,14.65
2022-10-05T05:14:56.316Z,14.68
2022-10-05T05:17:44.277Z,14.65
2022-10-05T05:20:21.508Z,14.63
2022-10-05T05:22:54.659Z,14.60
2022-10-05T05:25:36.649Z,14.65
2022-10-05T05:28:20.409Z,14.64
2022-10-05T05:30:53.985Z,14.65
2022-10-05T05:33:27.780Z,14.69
2022-10-05T05:36:18.329Z,14.68
2022-10-05T05:39:01.420Z,14.69
2022-10-05T05:41:39.130Z,14.70
2022-10-05T05:44:21.291Z,14.73
2022-10-05T05:47:04.414Z,14.69
2022-10-05T05:49:55.504Z,14.68
2022-10-05T05:52:31.600Z,14.68
2022-10-05T05:55:03.521Z,14.71
2022-10-05T05:57:38.638Z,14.72
2022-10-05T06:00:12.951Z,14.74
2022-10-05T06:03:03.483Z,14.79
2022-10-05T06:05:37.391Z,14.82
2022-10-05T06:08:14.744Z,14.86
2022-10-05T06:10:50.478Z,14.89
2022-10-05T06:13:26.000Z,14.95
2022-10-05T06:15:59.019Z,14.98
2022-10-05T06:18:28.354Z,15.04
2022-10-05T06:21:01.840Z,15.04
2022-10-05T06:23:40.990Z,15.08
2022-10-05T06:26:23.261Z,15.07
2022-10-05T06:28:59.158Z,15.14
2022-10-05T06:31:58.527Z,15.23
2022-10-05T06:34:54.821Z,15.23
2022-10-05T06:37:36.213Z,15.24
2022-10-05T06:40:12.307Z,15.28
2022-10-05T06:42:48.043Z,15.38
2022-10-05T06:45:39.792Z,15.38
2022-10-05T06:48:21.139Z,15.41
2022-10-05T06:51:10.317Z,15.41
2022-10-05T06:54:09.307Z,15.47
2022-10-05T06:56:45.256Z,15.45
2022-10-05T06:59:21.330Z,15.47
2022-10-05T07:01:57.232Z,15.51
2022-10-05T07:04:50.934Z,15.51
2022-10-05T07:07:26.309Z,15.52
2022-10-05T07:10:06.823Z,15.57
2022-10-05T07:12:45.422Z,15.60
2022-10-05T07:15:32.303Z,15.58
2022-10-05T07:18:17.554Z,15.61
2022-10-05T07:20:54.093Z,15.67
2022-10-05T07:23:33.724Z,15.63
2022-10-05T07:26:07.450Z,15.66
2022-10-05T07:28:48.302Z,15.68
2022-10-05T07:31:26.874Z,15.67
2022-10-05T07:34:05.187Z,15.66
2022-10-05T07:36:58.674Z,15.67
2022-10-05T07:39:59.024Z,15.69
2022-10-05T07:42:43.802Z,15.73
2022-10-05T07:45:23.606Z,15.81
2022-10-05T07:47:55.734Z,15.81
2022-10-05T07:50:30.422Z,15.81
2022-10-05T07:53:03.718Z,15.91
2022-10-05T07:55:36.718Z,15.98
2022-10-05T07:58:13.995Z,16.00
2022-10-05T08:00:50.213Z,16.03
2022-10-05T08:03:28.274Z,16.07
2022-10-05T08:05:59.721Z,16.17
2022-10-05T08:08:36.434Z,16.11
2022-10-05T08:11:11.599Z,16.27
2022-10-05T08:13:47.879Z,16.29
2022-10-05T08:16:17.622Z,16.24
2022-10-05T08:18:55.863Z,16.30
2022-10-05T08:21:31.561Z,16.29
2022-10-05T08:24:06.802Z,16.44
2022-10-05T08:26:44.248Z,16.35
2022-10-05T08:29:21.098Z,16.32
2022-10-05T08:31:53.205Z,16.43
2022-10-05T08:34:27.212Z,16.42
2022-10-05T08:37:03.199Z,16.43
2022-10-05T08:39:36.010Z,16.48
2022-10-05T08:42:46.806Z,16.40
2022-10-05T08:45:51.811Z,16.49
2022-10-05T08:48:32.212Z,16.46
2022-10-05T08:51:23.174Z,16.58
2022-10-05T08:54:15.001Z,16.61
2022-10-05T08:56:49.544Z,16.57
2022-10-05T08:59:48.466Z,16.58
2022-10-05T09:02:27.056Z,16.49
2022-10-05T09:05:14.494Z,16.50
2022-10-05T09:08:02.498Z,16.46
2022-10-05T09:10:59.341Z,16.50
2022-10-05T09:13:39.651Z,16.61
2022-10-05T09:16:28.454Z,16.62
2022-10-05T09:19:26.318Z,16.71
2022-10-05T09:21:59.400Z,16.84
2022-10-05T09:24:29.781Z,16.92
2022-10-05T09:27:08.852Z,16.98
2022-10-05T09:30:05.863Z,16.88
2022-10-05T09:33:13.694Z,16.91
2022-10-05T09:36:18.955Z,16.96
2022-10-05T09:39:08.761Z,16.91
2022-10-05T09:42:24.766Z,17.00
2022-10-05T09:45:23.275Z,17.08
2022-10-05T09:48:11.192Z,17.08
2022-10-05T09:51:09.254Z,17.34
2022-10-05T09:53:57.130Z,17.37
2022-10-05T09:56:53.349Z,17.43
2022-10-05T09:59:59.709Z,17.34
2022-10-05T10:03:09.291Z,17.58
2022-10-05T10:06:13.638Z,17.63
2022-10-05T10:09:05.210Z,17.68
2022-10-05T10:11:50.144Z,17.85
2022-10-05T10:14:44.337Z,17.91
2022-10-05T10:17:37.986Z,17.97
2022-10-05T10:20:39.754Z,17.98
2022-10-05T10:24:00.330Z,18.18
2022-10-05T10:26:59.507Z,18.11
2022-10-05T10:30:03.767Z,17.93
2022-10-05T10:33:15.505Z,17.83
2022-10-05T10:35:51.912Z,17.96
2022-10-05T10:38:36.994Z,18.05
2022-10-05T10:41:35.703Z,18.19
2022-10-05T10:44:31.586Z,18.18
2022-10-05T10:47:32.289Z,18.29
2022-10-05T10:50:25.838Z,18.46
2022-10-05T10:53:10.038Z,18.57
2022-10-05T10:55:53.153Z,18.42
2022-10-05T10:58:55.251Z,18.49
2022-10-05T11:01:33.575Z,18.36
2022-10-05T11:04:30.856Z,18.27
2022-10-05T11:07:21.554Z,18.44
2022-10-05T11:10:09.742Z,18.33
2022-10-05T11:13:22.490Z,18.35
2022-10-05T11:16:46.241Z,18.26
2022-10-05T11:19:40.472Z,18.12
2022-10-05T11:22:47.734Z,18.36
2022-10-05T11:25:45.412Z,18.34
2022-10-05T11:29:10.100Z,18.40
2022-10-05T11:32:04.060Z,18.29
2022-10-05T11:34:57.917Z,18.27
2022-10-05T11:37:59.597Z,18.20
2022-10-05T11:41:01.424Z,18.66
2022-10-05T11:44:08.603Z,18.59
2022-10-05T11:46:46.259Z,18.48
2022-10-05T11:49:24.684Z,18.51
2022-10-05T11:52:00.225Z,18.39
2022-10-05T11:55:17.156Z,18.36
2022-10-05T11:57:51.486Z,18.50
2022-10-05T12:00:23.436Z,19.15
2022-10-05T12:03:19.457Z,19.63
2022-10-05T12:06:05.364Z,19.37
2022-10-05T12:08:41.861Z,19.06
2022-10-05T12:11:26.863Z,18.73
2022-10-05T12:14:02.053Z,18.65
2022-10-05T12:16:38.524Z,18.40
2022-10-05T12:19:16.836Z,18.58
2022-10-05T12:21:51.370Z,19.10
2022-10-05T12:24:27.061Z,18.98
2022-10-05T12:26:59.885Z,18.63
2022-10-05T12:29:32.218Z,18.66
2022-10-05T12:32:05.590Z,18.73
2022-10-05T12:34:47.763Z,18.42
2022-10-05T12:37:38.793Z,18.29
2022-10-05T12:40:19.509Z,18.19
2022-10-05T12:42:55.819Z,18.14
2022-10-05T12:45:34.083Z,18.13
2022-10-05T12:48:20.611Z,17.89
2022-10-05T12:50:51.670Z,17.75
2022-10-05T12:53:34.880Z,17.74
2022-10-05T12:56:09.773Z,17.69
2022-10-05T12:58:48.734Z,17.68
2022-10-05T13:01:31.628Z,17.69
2022-10-05T13:04:15.598Z,17.55
2022-10-05T13:06:50.132Z,17.49
2022-10-05T13:09:25.334Z,17.45
2022-10-05T13:11:58.910Z,17.50
2022-10-05T13:14:48.178Z,17.60
2022-10-05T13:17:21.660Z,17.70
2022-10-05T13:19:58.259Z,17.77
2022-10-05T13:22:33.291Z,17.74
2022-10-05T13:25:19.778Z,17.68
2022-10-05T13:27:58.910Z,17.74
2022-10-05T13:30:27.243Z,17.69
2022-10-05T13:32:59.959Z,17.50
2022-10-05T13:35:43.030Z,17.49
2022-10-05T13:38:24.021Z,17.55
2022-10-05T13:41:02.050Z,17.52
2022-10-05T13:43:40.091Z,17.72
2022-10-05T13:46:18.646Z,17.64
2022-10-05T13:48:59.939Z,17.60
2022-10-05T13:51:42.991Z,17.66
2022-10-05T13:54:19.623Z,17.76
2022-10-05T13:56:53.740Z,17.63
2022-10-05T13:59:29.152Z,17.75
2022-10-05T14:02:00.376Z,17.59
2022-10-05T14:04:31.195Z,17.66
2022-10-05T14:07:22.485Z,17.79
2022-10-05T14:09:50.943Z,17.73
2022-10-05T14:12:23.547Z,17.73
2022-10-05T14:14:53.685Z,17.90
2022-10-05T14:17:39.409Z,17.93
2022-10-05T14:20:34.306Z,18.58
2022-10-05T14:23:12.083Z,18.35
2022-10-05T14:25:50.225Z,18.17
2022-10-05T14:28:28.391Z,18.09
2022-10-05T14:31:02.030Z,18.00
2022-10-05T14:33:32.522Z,17.84
2022-10-05T14:36:01.188Z,17.74
2022-10-05T14:38:33.560Z,17.68
2022-10-05T14:41:07.453Z,17.62
2022-10-05T14:43:36.435Z,17.62
2022-10-05T14:46:28.121Z,17.70
2022-10-05T14:49:13.703Z,17.72
2022-10-05T14:51:42.886Z,17.73
2022-10-05T14:54:36.011Z,17.66
2022-10-05T14:57:13.785Z,17.53
2022-10-05T15:00:01.051Z,17.60
2022-10-05T15:02:57.462Z,17.56
2022-10-05T15:05:31.442Z,17.50
2022-10-05T15:08:14.668Z,17.46
2022-10-05T15:10:51.967Z,17.45
2022-10-05T15:13:23.422Z,17.41
2022-10-05T15:15:55.397Z,17.35
2022-10-05T15:18:32.297Z,17.40
2022-10-05T15:21:23.764Z,17.31
2022-10-05T15:23:57.469Z,17.29
2022-10-05T15:26:43.374Z,17.22
2022-10-05T15:29:26.032Z,17.26
2022-10-05T15:32:03.099Z,17.21
2022-10-05T15:34:38.995Z,17.30
2022-10-05T15:37:15.282Z,17.33
2022-10-05T15:39:50.055Z,17.40
2022-10-05T15:42:25.826Z,17.39
2022-10-05T15:45:03.249Z,17.37
2022-10-05T15:47:47.325Z,17.37
2022-10-05T15:50:22.455Z,17.40
2022-10-05T15:52:55.629Z,17.41
2022-10-05T15:55:38.334Z,17.43
2022-10-05T15:58:31.496Z,17.32
2022-10-05T16:01:06.457Z,17.31
2022-10-05T16:03:45.366Z,17.26
2022-10-05T16:06:43.002Z,17.34
2022-10-05T16:09:40.496Z,17.33
2022-10-05T16:12:19.209Z,17.37
2022-10-05T16:15:00.287Z,17.38
2022-10-05T16:17:47.974Z,17.46
2022-10-05T16:20:32.296Z,17.48
2022-10-05T16:23:08.712Z,17.52
2022-10-05T16:25:51.899Z,17.52
2022-10-05T16:28:38.657Z,17.49
2022-10-05T16:31:18.766Z,17.47
2022-10-05T16:34:03.863Z,17.39
2022-10-05T16:36:58.820Z,17.39
2022-10-05T16:39:48.549Z,17.34
2022-10-05T16:42:36.673Z,17.31
2022-10-05T16:45:22.652Z,17.31
2022-10-05T16:47:59.324Z,17.25
2022-10-05T16:50:37.092Z,17.25
2022-10-05T16:53:15.566Z,17.23
2022-10-05T16:55:48.198Z,17.18
2022-10-05T16:58:21.565Z,17.25
2022-10-05T17:01:05.098Z,17.23
2022-10-05T17:03:49.951Z,17.20
2022-10-05T17:06:38.091Z,17.19
2022-10-05T17:09:28.512Z,17.30
2022-10-05T17:12:06.208Z,17.26
2022-10-05T17:14:41.643Z,17.26
2022-10-05T17:17:34.363Z,17.29
2022-10-05T17:20:20.987Z,17.25
2022-10-05T17:22:52.919Z,17.36
2022-10-05T17:25:28.236Z,17.35
2022-10-05T17:27:57.918Z,17.30
2022-10-05T17:30:50.885Z,17.41
2022-10-05T17:33:24.873Z,17.40
2022-10-05T17:36:16.937Z,17.47
2022-10-05T17:38:53.363Z,17.46
2022-10-05T17:41:26.397Z,17.53
2022-10-05T17:44:33.392Z,17.55
2022-10-05T17:47:04.483Z,17.52
2022-10-05T17:50:09.933Z,17.56
2022-10-05T17:53:01.996Z,17.55
2022-10-05T17:56:01.690Z,17.54
2022-10-05T17:59:04.196Z,17.63
2022-10-05T18:01:35.635Z,17.55
2022-10-05T18:04:30.437Z,17.69
2022-10-05T18:07:39.237Z,17.64
2022-10-05T18:10:28.819Z,17.79
2022-10-05T18:13:21.080Z,17.70
2022-10-05T18:15:50.413Z,17.69
2022-10-05T18:18:56.529Z,17.63
2022-10-05T18:21:37.987Z,17.68
2022-10-05T18:24:43.421Z,17.70
2022-10-05T18:27:49.782Z,17.65
2022-10-05T18:30:25.207Z,17.66
2022-10-05T18:33:19.604Z,17.51
2022-10-05T18:36:00.104Z,16.78
2022-10-05T18:38:35.745Z,16.36
2022-10-05T18:41:09.846Z,16.06
2022-10-05T18:43:45.367Z,15.76
2022-10-05T18:46:27.566Z,15.56
2022-10-05T18:49:06.687Z,15.49
2022-10-05T18:51:48.417Z,15.40
2022-10-05T18:54:35.357Z,15.36
2022-10-05T18:57:31.556Z,15.33
2022-10-05T19:00:03.297Z,15.33
2022-10-05T19:02:38.397Z,15.30
2022-10-05T19:05:46.352Z,15.33
2022-10-05T19:08:18.751Z,15.28
2022-10-05T19:10:52.845Z,15.29
2022-10-05T19:13:43.293Z,15.29
2022-10-05T19:16:29.882Z,15.32
2022-10-05T19:19:15.670Z,15.31
2022-10-05T19:21:51.660Z,15.32
2022-10-05T19:24:32.281Z,15.28
2022-10-05T19:27:07.305Z,15.29
2022-10-05T19:29:59.408Z,15.34
2022-10-05T19:32:39.275Z,15.38
2022-10-05T19:35:20.230Z,15.33
2022-10-05T19:37:58.379Z,15.37
2022-10-05T19:40:33.858Z,15.32
2022-10-05T19:43:29.219Z,15.36
2022-10-05T19:46:16.268Z,15.34
2022-10-05T19:48:50.939Z,15.36
2022-10-05T19:51:30.576Z,15.40
2022-10-05T19:54:02.921Z,15.39
2022-10-05T19:56:34.756Z,15.37
2022-10-05T19:59:13.272Z,15.40
2022-10-05T20:01:50.579Z,15.39
2022-10-05T20:04:33.832Z,15.42
2022-10-05T20:07:03.969Z,15.43
2022-10-05T20:09:51.832Z,15.43
2022-10-05T20:12:22.599Z,15.46
2022-10-05T20:15:25.041Z,15.49
2022-10-05T20:18:10.513Z,15.48
2022-10-05T20:20:44.496Z,15.51
2022-10-05T20:23:25.153Z,15.52
2022-10-05T20:26:11.124Z,15.57
2022-10-05T20:28:39.711Z,15.57
2022-10-05T20:31:08.773Z,15.55
2022-10-05T20:33:37.111Z,15.52
2022-10-05T20:36:05.865Z,15.58
2022-10-05T20:38:40.032Z,15.56
2022-10-05T20:41:09.458Z,15.33
2022-10-05T20:43:39.421Z,15.14
2022-10-05T20:46:08.063Z,14.92
2022-10-05T20:48:36.563Z,14.74
2022-10-05T20:51:04.825Z,14.66
2022-10-05T20:53:33.645Z,14.65
2022-10-05T20:56:04.478Z,14.62
2022-10-05T20:58:32.685Z,14.58
2022-10-05T21:01:20.026Z,14.59
2022-10-05T21:03:48.486Z,14.62
2022-10-05T21:06:17.941Z,14.60
2022-10-05T21:08:46.395Z,14.63
2022-10-05T21:11:15.998Z,14.62
2022-10-05T21:13:45.774Z,14.56
2022-10-05T21:16:16.530Z,14.57
2022-10-05T21:18:46.763Z,14.54
2022-10-05T21:21:15.329Z,14.47
2022-10-05T21:23:43.521Z,14.36
2022-10-05T21:26:12.649Z,14.29
2022-10-05T21:28:42.754Z,14.23
2022-10-05T21:31:11.580Z,14.19
2022-10-05T21:33:40.097Z,14.22
2022-10-05T21:36:08.296Z,14.22
2022-10-05T21:38:36.472Z,14.19
2022-10-05T21:41:04.751Z,14.21
2022-10-05T21:43:32.959Z,14.19
2022-10-05T21:46:03.074Z,14.11
2022-10-05T21:48:32.635Z,14.13
2022-10-05T21:51:01.966Z,14.10
2022-10-05T21:53:32.990Z,14.09
2022-10-05T21:56:03.830Z,14.03
2022-10-05T21:58:32.337Z,14.09
2022-10-05T22:01:01.831Z,14.24
2022-10-05T22:03:30.035Z,14.20
2022-10-05T22:05:58.394Z,14.12
2022-10-05T22:08:29.206Z,14.08
2022-10-05T22:10:58.246Z,14.03
2022-10-05T22:13:27.727Z,13.93
2022-10-05T22:15:56.883Z,13.89
2022-10-05T22:18:27.322Z,13.91
2022-10-05T22:20:55.795Z,13.83
2022-10-05T22:23:26.801Z,13.84
2022-10-05T22:25:55.071Z,13.85
2022-10-05T22:28:23.360Z,13.84
2022-10-05T22:30:52.322Z,13.79
2022-10-05T22:33:20.595Z,13.69
2022-10-05T22:35:50.446Z,13.65
2022-10-05T22:38:18.601Z,13.66
2022-10-05T22:40:46.750Z,13.60
2022-10-05T22:43:14.945Z,13.63
2022-10-05T22:45:43.211Z,13.59
2022-10-05T22:48:11.343Z,13.49
2022-10-05T22:50:39.740Z,13.43
2022-10-05T22:53:09.561Z,13.38
2022-10-05T22:55:37.726Z,13.37
2022-10-05T22:58:06.025Z,13.25
2022-10-05T23:00:56.572Z,13.33
2022-10-05T23:03:31.758Z,13.33
2022-10-05T23:06:03.046Z,13.24
2022-10-05T23:08:33.348Z,13.20
2022-10-05T23:11:03.038Z,13.23
2022-10-05T23:13:31.346Z,13.21
2022-10-05T23:15:59.454Z,13.15
2022-10-05T23:18:27.989Z,13.06
2022-10-05T23:20:56.624Z,12.95
2022-10-05T23:23:25.509Z,12.84
2022-10-05T23:25:59.625Z,12.81
2022-10-05T23:28:28.559Z,12.82
2022-10-05T23:31:00.191Z,12.75
2022-10-05T23:33:28.782Z,12.71
2022-10-05T23:36:00.908Z,12.66
2022-10-05T23:38:30.184Z,12.61
2022-10-05T23:41:00.786Z,12.62
2022-10-05T23:43:29.427Z,12.58
2022-10-05T23:45:58.121Z,12.58
2022-10-05T23:48:27.006Z,12.61
2022-10-05T23:50:55.730Z,12.63
2022-10-05T23:53:24.058Z,12.55
2022-10-05T23:55:53.171Z,12.47
2022-10-05T23:58:23.966Z,12.38
